Terminal Aerodrome Forecast
Issued by NWS

Current Version | Previous Version | Text Only | Print | Product List | Glossary On
Versions: 1 2 3 4 5 6 7 8 9 10 11 12 13 14 15
000
FTUS45 KVEF 281120
TAFHND
TAF
KHND 281120Z 2812/2912 17008KT P6SM SKC
     FM281500 VRB04KT P6SM SKC
     FM281800 08006KT P6SM FEW100
     FM282200 16008KT P6SM FEW100
     FM290300 17006KT P6SM SKC=

USA.gov is the U.S. government's official web portal to all federal, state and local government web resources and services.